SKUI/UIB METAR and TAF weather

Enter ICAO airport designator
Station Type Date Time Source
SKUI METAR 2019/08/20 00:00 UTC NOAA

SKUI 200000Z 00000KT 9999 FEW020 BKN080 24/23 A2981


Station Type Date Time Source
SKUI Decoded METAR 2019/08/20 00:00 UTC NOAA

Quibdo / El Carano, Colombia (SKUI) 05-43N 076-37W
Aug 19, 2019 - 08:00 PM EDT / 2019.08.20 0000 UTC
Wind: Calm:0
Visibility: greater than 7 mile(s):0
Sky conditions: mostly cloudy
Temperature: 75 F (24 C)
Dew Point: 73 F (23 C)
Relative Humidity: 94%
Pressure (altimeter): 29.81 in. Hg (1009 hPa)
ob: SKUI 200000Z 00000KT 9999 FEW020 BKN080 24/23 A2981
cycle: 0

Station Type Date Time Source
SKUI TAF UTC NOAA

Error!

Example: see airport list